Terminal Aerodrome Forecast
Issued by NWS

Home | Current Version | Previous Version | Text Only | Print | Product List | Glossary Off
Versions: 1 2 3 4 5 6 7 8 9 10 11 12 13 14

000
FTUS43 KICT 281100 AAA
TAFCNU
TAF AMD
KCNU 281102Z 2811/2906 VRB05KT 3SM BR SKC
      TEMPO 2811/2813 1SM BR
     FM281500 15010KT P6SM FEW060
     FM290000 14007KT P6SM SKC=

USA.gov is the U.S. government's official web portal to all federal, state and local government web resources and services.